createdAt,value
2022-11-27T00:01:37.059Z,38.70
2022-11-27T00:04:06.182Z,40.17
2022-11-27T00:06:35.332Z,31.42
2022-11-27T00:09:07.133Z,30.05
2022-11-27T00:11:35.901Z,36.33
2022-11-27T00:14:05.114Z,35.63
2022-11-27T00:16:33.759Z,38.85
2022-11-27T00:19:01.918Z,40.15
2022-11-27T00:21:32.744Z,33.40
2022-11-27T00:24:02.908Z,35.35
2022-11-27T00:26:37.821Z,38.35
2022-11-27T00:29:06.658Z,38.83
2022-11-27T00:31:37.820Z,36.80
2022-11-27T00:34:09.168Z,33.22
2022-11-27T00:36:38.546Z,39.05
2022-11-27T00:39:07.044Z,35.53
2022-11-27T00:41:36.668Z,38.53
2022-11-27T00:44:05.367Z,37.88
2022-11-27T00:46:35.625Z,39.05
2022-11-27T00:49:06.203Z,46.80
2022-11-27T00:51:34.713Z,41.70
2022-11-27T00:54:04.670Z,45.15
2022-11-27T00:56:35.576Z,43.90
2022-11-27T00:59:06.110Z,39.85
2022-11-27T01:01:36.145Z,37.25
2022-11-27T01:04:06.265Z,42.55
2022-11-27T01:06:35.091Z,42.25
2022-11-27T01:09:03.721Z,43.42
2022-11-27T01:11:34.782Z,38.78
2022-11-27T01:14:07.666Z,48.92
2022-11-27T01:16:42.751Z,38.97
2022-11-27T01:19:12.437Z,37.78
2022-11-27T01:21:40.751Z,41.05
2022-11-27T01:24:11.075Z,37.83
2022-11-27T01:26:40.154Z,31.95
2022-11-27T01:29:10.553Z,37.13
2022-11-27T01:31:39.089Z,32.85
2022-11-27T01:34:10.064Z,35.95
2022-11-27T01:36:38.736Z,35.75
2022-11-27T01:39:08.659Z,38.35
2022-11-27T01:41:40.018Z,40.13
2022-11-27T01:44:41.655Z,44.08
2022-11-27T01:47:17.519Z,44.78
2022-11-27T01:49:50.396Z,37.08
2022-11-27T01:52:23.025Z,36.47
2022-11-27T01:54:55.810Z,37.55
2022-11-27T01:57:28.729Z,30.67
2022-11-27T02:02:32.167Z,31.77
2022-11-27T02:05:00.961Z,36.03
2022-11-27T02:07:29.432Z,35.95
2022-11-27T02:09:57.975Z,38.55
2022-11-27T02:12:28.547Z,34.53
2022-11-27T02:15:06.948Z,35.72
2022-11-27T02:17:42.600Z,36.05
2022-11-27T02:20:24.528Z,36.03
2022-11-27T02:23:22.927Z,40.42
2022-11-27T02:26:07.267Z,35.13
2022-11-27T02:28:45.782Z,35.10
2022-11-27T02:31:20.023Z,44.50
2022-11-27T02:33:55.324Z,36.22
2022-11-27T02:36:32.436Z,34.78
2022-11-27T02:39:06.934Z,35.40
2022-11-27T02:41:40.945Z,33.92
2022-11-27T02:44:10.500Z,36.00
2022-11-27T02:46:42.185Z,40.15
2022-11-27T02:49:14.583Z,36.53
2022-11-27T02:51:46.168Z,36.92
2022-11-27T02:54:20.953Z,44.78
2022-11-27T02:56:52.610Z,39.90
2022-11-27T02:59:23.175Z,48.85
2022-11-27T03:01:58.259Z,43.75
2022-11-27T03:04:32.365Z,48.92
2022-11-27T03:07:05.698Z,51.38
2022-11-27T03:09:38.316Z,44.30
2022-11-27T03:12:09.545Z,49.55
2022-11-27T03:14:39.695Z,40.67
2022-11-27T03:17:19.474Z,43.63
2022-11-27T03:19:51.563Z,41.00
2022-11-27T03:22:21.303Z,63.88
2022-11-27T03:24:50.958Z,51.65
2022-11-27T03:27:24.088Z,59.38
2022-11-27T03:29:56.534Z,57.13
2022-11-27T03:32:30.741Z,60.97
2022-11-27T03:35:14.479Z,54.28
2022-11-27T03:37:43.045Z,58.22
2022-11-27T03:40:13.915Z,66.35
2022-11-27T03:42:53.648Z,65.20
2022-11-27T03:45:31.022Z,56.70
2022-11-27T03:48:18.667Z,73.28
2022-11-27T03:51:00.695Z,64.32
2022-11-27T03:53:38.062Z,62.40
2022-11-27T03:56:10.579Z,67.82
2022-11-27T03:58:44.840Z,61.88
2022-11-27T04:01:18.118Z,76.25
2022-11-27T04:03:48.396Z,67.18
2022-11-27T04:06:16.981Z,71.38
2022-11-27T04:08:47.966Z,73.38
2022-11-27T04:11:16.346Z,62.67
2022-11-27T04:13:44.950Z,64.53
2022-11-27T04:16:13.307Z,78.55
2022-11-27T04:18:43.000Z,58.42
2022-11-27T04:21:13.317Z,55.72
2022-11-27T04:23:41.722Z,45.28
2022-11-27T04:26:11.885Z,67.60
2022-11-27T04:28:40.546Z,60.97
2022-11-27T04:31:08.590Z,55.80
2022-11-27T04:33:37.462Z,49.03
2022-11-27T04:36:05.950Z,45.30
2022-11-27T04:38:35.845Z,48.17
2022-11-27T04:41:04.286Z,38.17
2022-11-27T04:43:32.988Z,48.78
2022-11-27T04:46:04.679Z,43.30
2022-11-27T04:48:34.010Z,41.25
2022-11-27T04:51:02.869Z,46.25
2022-11-27T04:53:32.068Z,38.60
2022-11-27T04:56:03.011Z,39.38
2022-11-27T04:58:31.823Z,45.53
2022-11-27T05:01:00.547Z,37.10
2022-11-27T05:03:28.850Z,47.65
2022-11-27T05:05:58.391Z,49.67
2022-11-27T05:08:26.802Z,62.75
2022-11-27T05:11:07.788Z,47.78
2022-11-27T05:13:36.240Z,52.53
2022-11-27T05:16:05.169Z,46.85
2022-11-27T05:18:33.624Z,42.00
2022-11-27T05:21:03.790Z,54.53
2022-11-27T05:23:33.267Z,39.25
2022-11-27T05:26:03.562Z,40.25
2022-11-27T05:28:32.391Z,42.28
2022-11-27T05:31:00.997Z,49.85
2022-11-27T05:33:29.386Z,38.13
2022-11-27T05:35:59.034Z,46.08
2022-11-27T05:38:27.447Z,50.53
2022-11-27T05:40:55.700Z,46.05
2022-11-27T05:43:25.426Z,47.58
2022-11-27T05:45:53.611Z,45.75
2022-11-27T05:48:21.894Z,39.42
2022-11-27T05:50:50.423Z,46.85
2022-11-27T05:53:18.936Z,55.65
2022-11-27T05:55:48.792Z,42.42
2022-11-27T05:58:17.080Z,43.90
2022-11-27T06:00:47.642Z,47.75
2022-11-27T06:03:19.723Z,37.67
2022-11-27T06:05:48.985Z,41.87
2022-11-27T06:08:17.831Z,40.50
2022-11-27T06:10:46.088Z,44.22
2022-11-27T06:13:15.195Z,51.55
2022-11-27T06:15:51.395Z,50.45
2022-11-27T06:18:23.064Z,51.35
2022-11-27T06:20:54.011Z,50.00
2022-11-27T06:23:24.172Z,47.83
2022-11-27T06:25:59.851Z,53.33
2022-11-27T06:28:33.429Z,52.20
2022-11-27T06:31:17.492Z,43.97
2022-11-27T06:33:53.503Z,42.75
2022-11-27T06:36:34.107Z,50.15
2022-11-27T06:39:05.807Z,43.63
2022-11-27T06:42:10.198Z,45.53
2022-11-27T06:44:48.066Z,35.17
2022-11-27T06:47:27.816Z,51.95
2022-11-27T06:50:03.348Z,38.78
2022-11-27T06:52:46.589Z,40.30
2022-11-27T06:58:07.786Z,33.30
2022-11-27T07:00:44.556Z,35.65
2022-11-27T07:03:28.744Z,42.47
2022-11-27T07:06:08.530Z,47.95
2022-11-27T07:08:53.407Z,41.83
2022-11-27T07:11:38.312Z,34.70
2022-11-27T07:14:16.071Z,27.90
2022-11-27T07:16:52.627Z,34.10
2022-11-27T07:19:37.007Z,31.45
2022-11-27T07:22:18.017Z,31.52
2022-11-27T07:24:53.698Z,36.05
2022-11-27T07:27:27.003Z,29.05
2022-11-27T07:32:42.998Z,29.85
2022-11-27T07:35:15.753Z,31.15
2022-11-27T07:37:45.961Z,28.40
2022-11-27T07:40:19.842Z,34.13
2022-11-27T07:42:51.461Z,25.67
2022-11-27T07:45:20.914Z,28.13
2022-11-27T07:47:55.728Z,26.48
2022-11-27T07:50:33.114Z,23.00
2022-11-27T07:53:03.881Z,26.60
2022-11-27T07:55:34.520Z,25.98
2022-11-27T07:58:03.686Z,31.98
2022-11-27T08:00:37.574Z,31.45
2022-11-27T08:03:06.080Z,27.92
2022-11-27T08:05:41.655Z,23.50
2022-11-27T08:08:13.784Z,22.75
2022-11-27T08:10:45.363Z,21.77
2022-11-27T08:13:14.803Z,22.20
2022-11-27T08:15:43.235Z,26.25
2022-11-27T08:18:11.847Z,24.30
2022-11-27T08:20:41.722Z,25.40
2022-11-27T08:23:11.240Z,25.52
2022-11-27T08:25:40.438Z,20.27
2022-11-27T08:28:11.012Z,23.45
2022-11-27T08:30:39.751Z,23.13
2022-11-27T08:33:11.130Z,17.88
2022-11-27T08:35:49.350Z,19.80
2022-11-27T08:38:18.277Z,21.08
2022-11-27T08:40:48.861Z,21.90
2022-11-27T08:43:17.445Z,21.25
2022-11-27T08:45:46.082Z,21.80
2022-11-27T08:48:15.767Z,20.85
2022-11-27T08:50:47.513Z,24.70
2022-11-27T08:53:17.769Z,23.27
2022-11-27T08:55:46.987Z,26.17
2022-11-27T08:58:16.040Z,22.67
2022-11-27T09:00:44.740Z,23.33
2022-11-27T09:03:25.742Z,21.38
2022-11-27T09:05:56.496Z,22.60
2022-11-27T09:08:25.377Z,23.05
2022-11-27T09:10:54.045Z,26.10
2022-11-27T09:13:22.411Z,23.08
2022-11-27T09:15:54.397Z,21.38
2022-11-27T09:18:30.435Z,24.05
2022-11-27T09:21:02.760Z,21.48
2022-11-27T09:23:33.300Z,21.10
2022-11-27T09:26:05.369Z,23.08
2022-11-27T09:28:44.435Z,23.17
2022-11-27T09:31:28.657Z,22.20
2022-11-27T09:34:01.404Z,22.38
2022-11-27T09:36:32.421Z,26.08
2022-11-27T09:39:14.497Z,27.83
2022-11-27T09:41:51.411Z,26.83
2022-11-27T09:44:35.705Z,25.52
2022-11-27T09:47:20.351Z,24.35
2022-11-27T09:49:53.506Z,21.48
2022-11-27T09:54:59.678Z,22.88
2022-11-27T09:57:35.129Z,23.25
2022-11-27T10:00:09.744Z,18.88
2022-11-27T10:02:39.853Z,21.42
2022-11-27T10:05:18.363Z,20.45
2022-11-27T10:08:16.346Z,21.48
2022-11-27T10:10:53.949Z,21.50
2022-11-27T10:13:40.491Z,22.85
2022-11-27T10:16:15.518Z,20.45
2022-11-27T10:18:48.928Z,22.77
2022-11-27T10:21:24.142Z,23.23
2022-11-27T10:24:03.773Z,21.25
2022-11-27T10:26:40.445Z,17.67
2022-11-27T10:29:27.067Z,19.13
2022-11-27T10:31:58.822Z,20.33
2022-11-27T10:34:35.993Z,16.65
2022-11-27T10:37:10.875Z,23.00
2022-11-27T10:39:55.178Z,19.30
2022-11-27T10:42:33.396Z,18.15
2022-11-27T10:45:07.743Z,17.40
2022-11-27T10:47:41.359Z,18.02
2022-11-27T10:50:16.004Z,20.35
2022-11-27T10:52:56.881Z,18.38
2022-11-27T10:55:46.147Z,19.75
2022-11-27T10:58:23.949Z,19.48
2022-11-27T11:01:05.460Z,20.75
2022-11-27T11:03:40.600Z,16.42
2022-11-27T11:06:21.160Z,18.65
2022-11-27T11:09:18.957Z,20.63
2022-11-27T11:11:58.544Z,15.60
2022-11-27T11:14:45.970Z,14.95
2022-11-27T11:17:20.176Z,16.48
2022-11-27T11:19:54.902Z,19.98
2022-11-27T11:22:31.309Z,16.05
2022-11-27T11:25:12.182Z,16.25
2022-11-27T11:27:49.444Z,15.45
2022-11-27T11:30:36.145Z,16.58
2022-11-27T11:33:32.458Z,15.90
2022-11-27T11:36:10.634Z,17.50
2022-11-27T11:38:43.113Z,17.70
2022-11-27T11:41:13.066Z,18.20
2022-11-27T11:43:55.625Z,15.77
2022-11-27T11:46:28.672Z,18.47
2022-11-27T11:51:58.709Z,14.35
2022-11-27T11:54:49.696Z,13.98
2022-11-27T11:57:35.824Z,13.13
2022-11-27T12:00:15.961Z,16.73
2022-11-27T12:03:15.412Z,13.68
2022-11-27T12:06:09.294Z,14.30
2022-11-27T12:08:49.333Z,13.40
2022-11-27T12:11:27.436Z,13.32
2022-11-27T12:14:17.394Z,13.48
2022-11-27T12:17:00.524Z,12.80
2022-11-27T12:19:50.498Z,15.15
2022-11-27T12:22:30.988Z,13.32
2022-11-27T12:25:10.812Z,14.48
2022-11-27T12:27:49.531Z,14.90
2022-11-27T12:30:20.935Z,11.82
2022-11-27T12:33:10.951Z,12.10
2022-11-27T12:35:44.505Z,12.38
2022-11-27T12:38:41.759Z,12.55
2022-11-27T12:41:32.033Z,12.80
2022-11-27T12:44:01.329Z,11.98
2022-11-27T12:46:37.872Z,15.85
2022-11-27T12:49:15.455Z,12.32
2022-11-27T12:51:47.484Z,16.67
2022-11-27T12:54:21.918Z,13.35
2022-11-27T12:56:54.990Z,12.02
2022-11-27T13:02:12.192Z,10.93
2022-11-27T13:04:49.081Z,12.80
2022-11-27T13:07:24.206Z,14.60
2022-11-27T13:09:57.819Z,11.85
2022-11-27T13:12:31.091Z,13.20
2022-11-27T13:15:03.820Z,11.73
2022-11-27T13:17:42.311Z,14.88
2022-11-27T13:20:17.685Z,13.80
2022-11-27T13:22:46.896Z,17.17
2022-11-27T13:25:15.425Z,16.15
2022-11-27T13:27:46.834Z,19.17
2022-11-27T13:30:22.626Z,22.45
2022-11-27T13:32:53.512Z,23.25
2022-11-27T13:35:28.924Z,22.73
2022-11-27T13:38:05.379Z,26.70
2022-11-27T13:40:38.595Z,22.27
2022-11-27T13:43:17.028Z,27.80
2022-11-27T13:45:45.624Z,26.13
2022-11-27T13:48:31.477Z,25.00
2022-11-27T13:51:01.944Z,23.27
2022-11-27T13:53:35.735Z,20.58
2022-11-27T13:56:05.724Z,20.08
2022-11-27T13:58:36.544Z,22.33
2022-11-27T14:01:17.268Z,23.40
2022-11-27T14:03:46.128Z,23.13
2022-11-27T14:06:33.094Z,19.02
2022-11-27T14:09:02.987Z,22.02
2022-11-27T14:11:39.915Z,20.38
2022-11-27T14:14:18.385Z,21.50
2022-11-27T14:16:57.532Z,20.08
2022-11-27T14:19:33.561Z,20.65
2022-11-27T14:22:15.407Z,20.25
2022-11-27T14:24:45.979Z,21.70
2022-11-27T14:27:20.260Z,20.63
2022-11-27T14:29:49.021Z,22.00
2022-11-27T14:32:18.965Z,21.67
2022-11-27T14:34:48.073Z,25.77
2022-11-27T14:37:25.927Z,22.00
2022-11-27T14:39:54.678Z,21.35
2022-11-27T14:42:28.474Z,24.17
2022-11-27T14:45:05.484Z,19.20
2022-11-27T14:47:34.838Z,21.33
2022-11-27T14:50:04.007Z,18.88
2022-11-27T14:52:34.151Z,23.95
2022-11-27T14:55:04.683Z,26.40
2022-11-27T14:57:33.997Z,23.88
2022-11-27T15:00:06.202Z,27.05
2022-11-27T15:02:34.879Z,23.05
2022-11-27T15:05:06.320Z,19.40
2022-11-27T15:07:45.445Z,24.15
2022-11-27T15:10:28.440Z,21.27
2022-11-27T15:12:58.100Z,24.77
2022-11-27T15:15:28.084Z,26.63
2022-11-27T15:17:59.354Z,25.60
2022-11-27T15:20:33.199Z,22.60
2022-11-27T15:23:03.375Z,24.75
2022-11-27T15:25:37.194Z,23.95
2022-11-27T15:28:27.020Z,23.65
2022-11-27T15:30:56.835Z,22.58
2022-11-27T15:33:29.797Z,28.10
2022-11-27T15:36:16.600Z,27.58
2022-11-27T15:38:47.966Z,25.58
2022-11-27T15:41:25.813Z,24.30
2022-11-27T15:44:06.249Z,27.52
2022-11-27T15:47:07.353Z,25.30
2022-11-27T15:49:46.618Z,23.88
2022-11-27T15:52:27.316Z,21.92
2022-11-27T15:54:58.798Z,26.42
2022-11-27T15:57:36.167Z,26.50
2022-11-27T16:00:23.023Z,23.95
2022-11-27T16:02:59.418Z,23.42
2022-11-27T16:05:33.729Z,24.45
2022-11-27T16:08:10.123Z,26.38
2022-11-27T16:11:22.113Z,25.67
2022-11-27T16:13:53.223Z,25.60
2022-11-27T16:16:40.763Z,26.08
2022-11-27T16:19:17.753Z,26.88
2022-11-27T16:21:50.901Z,26.45
2022-11-27T16:24:22.023Z,25.75
2022-11-27T16:26:53.816Z,24.27
2022-11-27T16:29:23.732Z,23.13
2022-11-27T16:31:57.271Z,26.73
2022-11-27T16:34:31.452Z,24.17
2022-11-27T16:36:59.834Z,25.23
2022-11-27T16:39:28.956Z,28.38
2022-11-27T16:42:02.408Z,25.30
2022-11-27T16:44:31.376Z,23.85
2022-11-27T16:47:02.581Z,25.52
2022-11-27T16:49:32.683Z,25.15
2022-11-27T16:52:01.963Z,25.73
2022-11-27T16:54:37.010Z,27.77
2022-11-27T16:57:11.732Z,28.50
2022-11-27T16:59:40.526Z,27.73
2022-11-27T17:02:12.559Z,28.60
2022-11-27T17:04:43.113Z,25.05
2022-11-27T17:07:13.648Z,27.75
2022-11-27T17:09:48.211Z,28.10
2022-11-27T17:12:20.042Z,26.27
2022-11-27T17:14:50.214Z,30.80
2022-11-27T17:17:21.780Z,29.30
2022-11-27T17:20:00.927Z,28.55
2022-11-27T17:22:36.122Z,29.15
2022-11-27T17:25:11.389Z,30.00
2022-11-27T17:27:48.462Z,34.83
2022-11-27T17:30:20.659Z,32.28
2022-11-27T17:32:52.321Z,30.37
2022-11-27T17:35:25.995Z,26.60
2022-11-27T17:37:54.456Z,32.47
2022-11-27T17:40:23.949Z,31.42
2022-11-27T17:42:54.303Z,29.85
2022-11-27T17:45:24.533Z,28.63
2022-11-27T17:47:55.456Z,32.20
2022-11-27T17:50:24.342Z,30.58
2022-11-27T17:52:59.760Z,30.55
2022-11-27T17:55:40.024Z,35.05
2022-11-27T17:58:19.718Z,37.40
2022-11-27T18:00:50.282Z,35.35
2022-11-27T18:03:24.990Z,33.03
2022-11-27T18:06:24.714Z,32.97
2022-11-27T18:09:07.078Z,33.90
2022-11-27T18:11:57.693Z,39.92
2022-11-27T18:14:33.417Z,39.05
2022-11-27T18:17:21.198Z,39.47
2022-11-27T18:20:17.168Z,41.45
2022-11-27T18:22:53.600Z,44.20
2022-11-27T18:25:25.663Z,40.22
2022-11-27T18:27:58.295Z,41.40
2022-11-27T18:30:41.423Z,40.22
2022-11-27T18:33:24.752Z,40.90
2022-11-27T18:39:01.740Z,43.33
2022-11-27T18:41:44.579Z,37.13
2022-11-27T18:44:31.870Z,41.47
2022-11-27T18:47:14.754Z,33.75
2022-11-27T18:49:55.751Z,31.58
2022-11-27T18:52:31.094Z,32.38
2022-11-27T18:55:35.620Z,38.47
2022-11-27T18:58:28.352Z,39.55
2022-11-27T19:01:11.025Z,36.47
2022-11-27T19:03:45.506Z,40.43
2022-11-27T19:06:19.808Z,44.60
2022-11-27T19:08:49.538Z,41.75
2022-11-27T19:11:33.125Z,39.13
2022-11-27T19:14:17.387Z,40.80
2022-11-27T19:16:47.185Z,41.30
2022-11-27T19:22:11.242Z,41.88
2022-11-27T19:24:43.949Z,39.10
2022-11-27T19:27:18.171Z,38.25
2022-11-27T19:29:47.171Z,38.47
2022-11-27T19:32:22.536Z,36.20
2022-11-27T19:35:01.902Z,33.30
2022-11-27T19:37:38.636Z,38.13
2022-11-27T19:40:12.736Z,33.63
2022-11-27T19:42:45.403Z,32.13
2022-11-27T19:45:16.825Z,27.70
2022-11-27T19:47:48.829Z,29.25
2022-11-27T19:50:20.819Z,31.80
2022-11-27T19:52:50.331Z,33.90
2022-11-27T19:55:23.607Z,35.50
2022-11-27T19:57:53.316Z,39.85
2022-11-27T20:00:23.246Z,34.97
2022-11-27T20:02:54.571Z,33.13
2022-11-27T20:05:36.507Z,40.50
2022-11-27T20:08:17.434Z,36.80
2022-11-27T20:10:57.890Z,29.50
2022-11-27T20:13:28.829Z,29.88
2022-11-27T20:16:06.051Z,33.78
2022-11-27T20:18:37.163Z,35.60
2022-11-27T20:21:16.841Z,35.67
2022-11-27T20:23:48.165Z,30.90
2022-11-27T20:26:22.427Z,28.17
2022-11-27T20:28:56.467Z,36.17
2022-11-27T20:31:26.707Z,32.03
2022-11-27T20:33:58.871Z,38.58
2022-11-27T20:36:30.928Z,27.37
2022-11-27T20:39:05.699Z,28.65
2022-11-27T20:41:34.719Z,29.10
2022-11-27T20:44:11.576Z,39.72
2022-11-27T20:46:43.238Z,33.22
2022-11-27T20:49:16.612Z,28.63
2022-11-27T20:51:50.985Z,34.25
2022-11-27T20:54:25.377Z,43.78
2022-11-27T20:56:56.036Z,47.63
2022-11-27T20:59:26.549Z,39.60
2022-11-27T21:01:55.177Z,32.92
2022-11-27T21:04:28.533Z,28.83
2022-11-27T21:07:01.663Z,27.63
2022-11-27T21:12:04.468Z,17.20
2022-11-27T21:14:37.593Z,13.88
2022-11-27T21:19:52.959Z,13.60
2022-11-27T21:22:34.192Z,13.20
2022-11-27T21:25:08.492Z,15.65
2022-11-27T21:27:38.771Z,14.13
2022-11-27T21:30:11.455Z,11.73
2022-11-27T21:32:47.089Z,13.27
2022-11-27T21:35:17.900Z,14.43
2022-11-27T21:37:52.819Z,13.60
2022-11-27T21:40:24.775Z,13.00
2022-11-27T21:42:55.400Z,11.32
2022-11-27T21:45:26.149Z,11.55
2022-11-27T21:47:55.821Z,11.57
2022-11-27T21:50:25.588Z,12.50
2022-11-27T21:52:59.071Z,9.38
2022-11-27T21:55:30.702Z,13.77
2022-11-27T21:58:03.516Z,14.45
2022-11-27T22:00:43.136Z,14.25
2022-11-27T22:03:14.409Z,10.75
2022-11-27T22:05:45.749Z,11.07
2022-11-27T22:08:23.080Z,12.07
2022-11-27T22:10:52.189Z,13.75
2022-11-27T22:13:26.464Z,11.02
2022-11-27T22:15:59.893Z,11.40
2022-11-27T22:18:44.375Z,11.70
2022-11-27T22:21:16.882Z,12.00
2022-11-27T22:23:49.976Z,11.82
2022-11-27T22:29:07.521Z,10.18
2022-11-27T22:31:37.535Z,11.75
2022-11-27T22:34:17.005Z,10.93
2022-11-27T22:36:55.670Z,14.45
2022-11-27T22:39:39.825Z,11.20
2022-11-27T22:42:19.224Z,10.43
2022-11-27T22:44:48.629Z,13.38
2022-11-27T22:47:27.336Z,11.27
2022-11-27T22:49:57.015Z,11.85
2022-11-27T22:52:27.003Z,12.40
2022-11-27T22:54:57.412Z,12.43
2022-11-27T22:57:26.100Z,10.90
2022-11-27T23:00:08.618Z,11.02
2022-11-27T23:02:40.856Z,8.75
2022-11-27T23:05:14.593Z,14.43
2022-11-27T23:07:43.552Z,12.45
2022-11-27T23:10:28.667Z,9.82
2022-11-27T23:12:59.825Z,10.88
2022-11-27T23:15:35.965Z,11.15
2022-11-27T23:18:16.516Z,10.57
2022-11-27T23:20:46.962Z,11.95
2022-11-27T23:23:20.012Z,12.82
2022-11-27T23:28:23.471Z,11.25
2022-11-27T23:31:08.705Z,9.57
2022-11-27T23:33:43.530Z,11.68
2022-11-27T23:36:27.103Z,10.90
2022-11-27T23:39:01.052Z,10.25
2022-11-27T23:41:35.933Z,9.82
2022-11-27T23:44:06.603Z,10.05
2022-11-27T23:46:37.749Z,10.90
2022-11-27T23:49:23.135Z,9.20
2022-11-27T23:51:55.427Z,10.38
2022-11-27T23:54:24.935Z,12.90
2022-11-27T23:56:56.871Z,13.23
2022-11-27T23:59:28.215Z,14.20
